createdAt,value
2022-07-25T00:00:14.248Z,99.90
2022-07-25T00:02:42.826Z,99.90
2022-07-25T00:05:11.323Z,99.90
2022-07-25T00:07:38.043Z,99.90
2022-07-25T00:10:05.070Z,99.90
2022-07-25T00:12:31.757Z,99.90
2022-07-25T00:14:58.446Z,99.90
2022-07-25T00:17:25.105Z,99.90
2022-07-25T00:19:51.723Z,99.90
2022-07-25T00:22:18.316Z,99.90
2022-07-25T00:24:44.939Z,99.90
2022-07-25T00:27:11.645Z,99.90
2022-07-25T00:29:38.305Z,99.90
2022-07-25T00:32:05.339Z,99.90
2022-07-25T00:34:32.023Z,99.90
2022-07-25T00:36:58.617Z,99.90
2022-07-25T00:39:25.235Z,99.90
2022-07-25T00:41:51.845Z,99.90
2022-07-25T00:44:25.494Z,99.90
2022-07-25T00:46:52.729Z,99.90
2022-07-25T00:49:19.490Z,99.90
2022-07-25T00:51:46.235Z,99.90
2022-07-25T00:54:12.960Z,99.90
2022-07-25T00:56:39.638Z,99.90
2022-07-25T00:59:06.357Z,99.90
2022-07-25T01:01:33.030Z,99.90
2022-07-25T01:03:59.738Z,99.90
2022-07-25T01:06:26.877Z,99.90
2022-07-25T01:08:54.053Z,99.90
2022-07-25T01:11:21.223Z,99.90
2022-07-25T01:13:47.824Z,99.90
2022-07-25T01:16:14.781Z,99.90
2022-07-25T01:18:41.418Z,99.90
2022-07-25T01:21:08.022Z,99.90
2022-07-25T01:23:34.673Z,99.90
2022-07-25T01:26:01.261Z,99.90
2022-07-25T01:28:27.934Z,99.90
2022-07-25T01:30:54.649Z,99.90
2022-07-25T01:33:21.622Z,99.90
2022-07-25T01:35:48.248Z,99.90
2022-07-25T01:38:15.002Z,99.90
2022-07-25T01:40:41.791Z,99.90
2022-07-25T01:43:08.441Z,99.90
2022-07-25T01:45:35.133Z,99.90
2022-07-25T01:48:01.738Z,99.90
2022-07-25T01:50:28.351Z,99.90
2022-07-25T01:52:54.945Z,99.90
2022-07-25T01:55:21.631Z,99.90
2022-07-25T01:57:49.714Z,99.90
2022-07-25T02:00:16.921Z,99.90
2022-07-25T02:02:43.971Z,99.90
2022-07-25T02:05:11.358Z,99.90
2022-07-25T02:07:38.100Z,99.90
2022-07-25T02:10:06.057Z,99.90
2022-07-25T02:12:32.742Z,99.90
2022-07-25T02:14:59.385Z,99.90
2022-07-25T02:17:26.107Z,99.90
2022-07-25T02:19:52.778Z,99.90
2022-07-25T02:22:19.447Z,99.90
2022-07-25T02:24:46.089Z,99.90
2022-07-25T02:27:12.690Z,99.90
2022-07-25T02:29:39.297Z,99.90
2022-07-25T02:32:06.278Z,99.90
2022-07-25T02:34:32.898Z,99.90
2022-07-25T02:36:59.507Z,99.90
2022-07-25T02:39:26.147Z,99.90
2022-07-25T02:41:52.749Z,99.90
2022-07-25T02:44:19.362Z,99.90
2022-07-25T02:46:45.976Z,99.90
2022-07-25T02:49:13.611Z,99.90
2022-07-25T02:51:40.273Z,99.90
2022-07-25T02:54:06.920Z,99.90
2022-07-25T02:56:33.509Z,99.90
2022-07-25T02:59:00.311Z,99.90
2022-07-25T03:01:27.126Z,99.90
2022-07-25T03:03:53.924Z,99.90
2022-07-25T03:06:20.541Z,99.90
2022-07-25T03:08:47.178Z,99.90
2022-07-25T03:11:14.138Z,99.90
2022-07-25T03:13:40.750Z,99.90
2022-07-25T03:16:07.795Z,99.90
2022-07-25T03:18:34.404Z,99.90
2022-07-25T03:21:01.055Z,99.90
2022-07-25T03:23:28.273Z,99.90
2022-07-25T03:25:55.669Z,99.90
2022-07-25T03:28:22.485Z,99.90
2022-07-25T03:30:49.084Z,99.90
2022-07-25T03:33:15.685Z,99.90
2022-07-25T03:35:42.358Z,99.90
2022-07-25T03:38:08.960Z,99.90
2022-07-25T03:40:36.444Z,99.90
2022-07-25T03:43:03.084Z,99.90
2022-07-25T03:45:29.779Z,99.90
2022-07-25T03:47:56.420Z,99.90
2022-07-25T03:50:23.038Z,99.90
2022-07-25T03:52:49.673Z,99.90
2022-07-25T03:55:16.305Z,99.90
2022-07-25T03:57:43.169Z,99.90
2022-07-25T04:00:10.425Z,99.90
2022-07-25T04:02:39.935Z,99.90
2022-07-25T04:05:07.362Z,99.90
2022-07-25T04:07:34.298Z,99.90
2022-07-25T04:10:01.721Z,99.90
2022-07-25T04:12:28.335Z,99.90
2022-07-25T04:14:54.968Z,99.90
2022-07-25T04:17:21.688Z,99.90
2022-07-25T04:19:48.407Z,99.90
2022-07-25T04:22:15.763Z,99.90
2022-07-25T04:24:42.383Z,99.90
2022-07-25T04:27:09.018Z,99.90
2022-07-25T04:29:35.648Z,99.90
2022-07-25T04:32:02.345Z,99.90
2022-07-25T04:34:29.022Z,99.90
2022-07-25T04:36:55.645Z,99.90
2022-07-25T04:39:22.233Z,99.90
2022-07-25T04:41:48.957Z,99.90
2022-07-25T04:44:15.647Z,99.90
2022-07-25T04:46:42.410Z,99.90
2022-07-25T04:49:09.110Z,99.90
2022-07-25T04:51:35.786Z,99.90
2022-07-25T04:54:02.574Z,99.90
2022-07-25T04:56:29.315Z,99.90
2022-07-25T04:58:58.709Z,99.90
2022-07-25T05:01:28.553Z,99.90
2022-07-25T05:03:55.214Z,99.90
2022-07-25T05:06:21.897Z,99.90
2022-07-25T05:08:48.516Z,99.90
2022-07-25T05:11:15.113Z,99.90
2022-07-25T05:13:41.744Z,99.90
2022-07-25T05:16:08.627Z,99.90
2022-07-25T05:18:35.303Z,99.90
2022-07-25T05:21:01.922Z,99.90
2022-07-25T05:23:28.553Z,99.90
2022-07-25T05:25:55.261Z,99.90
2022-07-25T05:28:21.887Z,99.90
2022-07-25T05:30:48.510Z,99.90
2022-07-25T05:33:15.121Z,99.90
2022-07-25T05:35:41.904Z,99.90
2022-07-25T05:38:08.524Z,99.90
2022-07-25T05:40:35.144Z,99.90
2022-07-25T05:43:03.505Z,99.90
2022-07-25T05:45:30.754Z,99.90
2022-07-25T05:47:57.400Z,99.90
2022-07-25T05:50:24.080Z,99.90
2022-07-25T05:52:50.841Z,99.90
2022-07-25T05:55:17.747Z,99.90
2022-07-25T05:57:44.402Z,99.90
2022-07-25T06:00:11.485Z,99.90
2022-07-25T06:02:38.310Z,99.90
2022-07-25T06:05:05.349Z,99.90
2022-07-25T06:07:31.973Z,99.90
2022-07-25T06:09:58.625Z,99.90
2022-07-25T06:12:25.264Z,99.90
2022-07-25T06:14:52.127Z,99.90
2022-07-25T06:17:18.866Z,99.90
2022-07-25T06:19:45.499Z,99.90
2022-07-25T06:22:12.550Z,99.90
2022-07-25T06:24:41.328Z,99.90
2022-07-25T06:27:08.451Z,99.90
2022-07-25T06:29:35.077Z,99.90
2022-07-25T06:32:01.847Z,99.90
2022-07-25T06:34:28.953Z,99.90
2022-07-25T06:36:57.378Z,99.90
2022-07-25T06:39:24.691Z,99.90
2022-07-25T06:41:51.458Z,97.70
2022-07-25T06:44:18.080Z,94.10
2022-07-25T06:46:44.749Z,91.70
2022-07-25T06:49:11.468Z,90.00
2022-07-25T06:51:38.172Z,87.20
2022-07-25T06:54:05.092Z,81.00
2022-07-25T06:56:32.878Z,76.20
2022-07-25T06:58:59.890Z,74.20
2022-07-25T07:01:26.696Z,70.90
2022-07-25T07:03:53.502Z,71.00
2022-07-25T07:06:20.184Z,68.90
2022-07-25T07:08:46.897Z,68.00
2022-07-25T07:11:15.214Z,67.60
2022-07-25T07:13:41.835Z,65.10
2022-07-25T07:16:08.729Z,63.20
2022-07-25T07:18:35.433Z,62.60
2022-07-25T07:21:02.045Z,62.10
2022-07-25T07:23:28.994Z,63.90
2022-07-25T07:25:56.079Z,62.10
2022-07-25T07:28:22.764Z,63.30
2022-07-25T07:33:37.604Z,58.80
2022-07-25T07:36:04.426Z,57.20
2022-07-25T07:38:31.034Z,56.60
2022-07-25T07:40:57.672Z,56.60
2022-07-25T07:43:29.617Z,56.80
2022-07-25T07:46:00.457Z,55.60
2022-07-25T07:48:28.180Z,54.20
2022-07-25T07:50:54.866Z,54.20
2022-07-25T07:53:21.535Z,53.90
2022-07-25T07:55:49.801Z,55.50
2022-07-25T07:58:17.446Z,56.40
2022-07-25T08:00:45.308Z,57.10
2022-07-25T08:03:11.998Z,57.80
2022-07-25T08:05:43.125Z,56.70
2022-07-25T08:08:10.989Z,56.40
2022-07-25T08:10:39.870Z,55.50
2022-07-25T08:13:16.472Z,55.80
2022-07-25T08:15:44.097Z,54.10
2022-07-25T08:18:18.026Z,54.00
2022-07-25T08:20:46.174Z,53.30
2022-07-25T08:23:12.828Z,53.40
2022-07-25T08:25:39.474Z,51.60
2022-07-25T08:28:08.752Z,51.00
2022-07-25T08:30:35.826Z,50.20
2022-07-25T08:33:04.505Z,50.30
2022-07-25T08:35:31.554Z,50.90
2022-07-25T08:37:59.092Z,51.90
2022-07-25T08:40:26.657Z,52.60
2022-07-25T08:42:54.960Z,51.40
2022-07-25T08:45:21.689Z,51.60
2022-07-25T08:47:49.909Z,50.50
2022-07-25T08:50:18.168Z,50.00
2022-07-25T08:52:45.661Z,50.70
2022-07-25T08:55:15.610Z,50.70
2022-07-25T08:57:43.918Z,50.80
2022-07-25T09:00:14.162Z,51.60
2022-07-25T09:02:40.936Z,51.30
2022-07-25T09:05:08.588Z,50.40
2022-07-25T09:07:39.575Z,50.20
2022-07-25T09:10:21.259Z,51.00
2022-07-25T09:12:55.892Z,50.70
2022-07-25T09:15:30.510Z,50.00
2022-07-25T09:17:59.385Z,49.40
2022-07-25T09:20:43.193Z,50.50
2022-07-25T09:23:14.385Z,49.50
2022-07-25T09:25:42.482Z,48.70
2022-07-25T09:28:19.189Z,47.80
2022-07-25T09:30:56.385Z,48.00
2022-07-25T09:33:23.863Z,48.20
2022-07-25T09:35:50.589Z,49.00
2022-07-25T09:38:17.615Z,48.10
2022-07-25T09:40:55.157Z,47.10
2022-07-25T09:43:23.090Z,47.00
2022-07-25T09:45:52.848Z,47.20
2022-07-25T09:48:20.939Z,47.90
2022-07-25T09:50:47.624Z,48.40
2022-07-25T09:53:14.308Z,48.80
2022-07-25T09:55:41.247Z,49.20
2022-07-25T09:58:07.886Z,47.00
2022-07-25T10:00:34.495Z,47.80
2022-07-25T10:03:05.543Z,49.30
2022-07-25T10:05:59.423Z,49.30
2022-07-25T10:08:26.063Z,50.60
2022-07-25T10:10:52.682Z,49.70
2022-07-25T10:13:29.551Z,49.60
2022-07-25T10:15:56.192Z,48.30
2022-07-25T10:18:27.517Z,49.00
2022-07-25T10:20:56.182Z,49.00
2022-07-25T10:23:27.777Z,49.00
2022-07-25T10:26:11.265Z,50.20
2022-07-25T10:28:43.411Z,50.40
2022-07-25T10:31:21.944Z,51.10
2022-07-25T10:33:59.444Z,50.20
2022-07-25T10:36:46.429Z,49.00
2022-07-25T10:39:15.101Z,48.30
2022-07-25T10:41:44.911Z,48.40
2022-07-25T10:44:15.478Z,48.30
2022-07-25T10:46:44.718Z,47.40
2022-07-25T10:49:19.571Z,46.00
2022-07-25T10:51:59.347Z,44.90
2022-07-25T10:54:25.968Z,44.80
2022-07-25T10:56:53.797Z,44.90
2022-07-25T10:59:37.149Z,43.50
2022-07-25T11:02:05.042Z,44.00
2022-07-25T11:04:32.053Z,43.60
2022-07-25T11:07:07.498Z,44.90
2022-07-25T11:09:34.322Z,43.00
2022-07-25T11:12:01.293Z,43.50
2022-07-25T11:14:37.372Z,43.70
2022-07-25T11:17:14.669Z,44.40
2022-07-25T11:19:42.809Z,43.20
2022-07-25T11:22:09.441Z,43.10
2022-07-25T11:24:43.006Z,43.10
2022-07-25T11:27:11.744Z,42.90
2022-07-25T11:29:39.817Z,41.90
2022-07-25T11:32:10.504Z,40.90
2022-07-25T11:34:46.905Z,41.40
2022-07-25T11:37:14.420Z,41.80
2022-07-25T11:39:42.417Z,41.60
2022-07-25T11:42:17.244Z,43.00
2022-07-25T11:44:48.535Z,44.50
2022-07-25T11:47:30.983Z,45.50
2022-07-25T11:50:02.213Z,41.50
2022-07-25T11:52:33.350Z,41.80
2022-07-25T11:55:04.426Z,43.30
2022-07-25T11:57:41.611Z,43.50
2022-07-25T12:00:16.177Z,44.60
2022-07-25T12:02:43.035Z,44.60
2022-07-25T12:05:12.382Z,45.40
2022-07-25T12:07:45.762Z,45.80
2022-07-25T12:10:16.839Z,46.80
2022-07-25T12:12:53.453Z,47.70
2022-07-25T12:15:27.813Z,49.00
2022-07-25T12:17:55.603Z,50.10
2022-07-25T12:20:23.089Z,49.10
2022-07-25T12:22:51.901Z,49.60
2022-07-25T12:25:18.546Z,50.20
2022-07-25T12:27:45.401Z,50.20
2022-07-25T12:30:12.726Z,49.60
2022-07-25T12:32:39.498Z,51.10
2022-07-25T12:35:07.109Z,51.40
2022-07-25T12:37:33.895Z,52.50
2022-07-25T12:40:00.563Z,52.80
2022-07-25T12:42:28.634Z,51.90
2022-07-25T12:44:55.901Z,52.00
2022-07-25T12:47:23.333Z,51.00
2022-07-25T12:49:50.569Z,50.90
2022-07-25T12:52:17.206Z,50.40
2022-07-25T12:54:44.238Z,51.00
2022-07-25T12:57:11.313Z,51.90
2022-07-25T12:59:38.069Z,52.40
2022-07-25T13:02:04.848Z,52.50
2022-07-25T13:04:31.769Z,53.30
2022-07-25T13:06:58.823Z,53.20
2022-07-25T13:09:25.901Z,52.90
2022-07-25T13:11:52.763Z,54.40
2022-07-25T13:14:19.390Z,56.50
2022-07-25T13:16:46.520Z,57.10
2022-07-25T13:19:13.382Z,58.30
2022-07-25T13:21:40.081Z,58.50
2022-07-25T13:24:07.249Z,58.70
2022-07-25T13:26:34.067Z,57.00
2022-07-25T13:29:00.789Z,57.10
2022-07-25T13:31:27.768Z,57.90
2022-07-25T13:33:54.464Z,58.40
2022-07-25T13:36:21.127Z,58.20
2022-07-25T13:38:47.840Z,56.90
2022-07-25T13:41:14.526Z,56.10
2022-07-25T13:43:43.081Z,56.20
2022-07-25T13:46:09.853Z,56.00
2022-07-25T13:48:36.965Z,55.10
2022-07-25T13:51:04.053Z,55.30
2022-07-25T13:53:30.900Z,54.90
2022-07-25T13:55:58.785Z,54.30
2022-07-25T13:58:25.943Z,55.10
2022-07-25T14:00:52.845Z,55.30
2022-07-25T14:03:19.604Z,54.20
2022-07-25T14:05:46.262Z,54.00
2022-07-25T14:08:12.988Z,54.50
2022-07-25T14:10:39.622Z,50.90
2022-07-25T14:13:06.305Z,51.30
2022-07-25T14:15:32.925Z,51.80
2022-07-25T14:17:59.599Z,52.30
2022-07-25T14:20:26.234Z,52.20
2022-07-25T14:22:52.898Z,52.70
2022-07-25T14:25:19.557Z,53.60
2022-07-25T14:27:46.216Z,52.10
2022-07-25T14:30:13.023Z,53.20
2022-07-25T14:32:39.650Z,52.20
2022-07-25T14:35:06.678Z,52.90
2022-07-25T14:37:33.638Z,52.50
2022-07-25T14:40:01.640Z,53.70
2022-07-25T14:42:28.348Z,54.20
2022-07-25T14:44:55.015Z,54.20
2022-07-25T14:47:21.957Z,54.10
2022-07-25T14:49:48.727Z,54.20
2022-07-25T14:52:15.753Z,52.40
2022-07-25T14:54:42.408Z,51.10
2022-07-25T14:57:09.670Z,51.10
2022-07-25T14:59:36.402Z,49.80
2022-07-25T15:02:03.764Z,50.20
2022-07-25T15:04:30.435Z,49.80
2022-07-25T15:06:57.139Z,50.20
2022-07-25T15:09:23.767Z,49.60
2022-07-25T15:11:50.385Z,50.80
2022-07-25T15:14:17.001Z,51.90
2022-07-25T15:16:43.931Z,52.00
2022-07-25T15:19:16.301Z,51.70
2022-07-25T15:21:44.311Z,53.00
2022-07-25T15:24:10.953Z,53.20
2022-07-25T15:26:37.805Z,52.80
2022-07-25T15:29:07.903Z,53.40
2022-07-25T15:31:36.046Z,52.60
2022-07-25T15:34:02.755Z,54.40
2022-07-25T15:36:29.951Z,54.40
2022-07-25T15:38:56.788Z,55.30
2022-07-25T15:41:23.491Z,55.20
2022-07-25T15:43:50.117Z,55.70
2022-07-25T15:46:16.901Z,56.50
2022-07-25T15:48:44.372Z,57.20
2022-07-25T15:51:11.105Z,57.50
2022-07-25T15:53:37.707Z,58.50
2022-07-25T15:56:04.660Z,58.20
2022-07-25T15:58:31.496Z,58.10
2022-07-25T16:00:58.184Z,58.60
2022-07-25T16:03:24.883Z,58.50
2022-07-25T16:05:51.533Z,56.60
2022-07-25T16:08:18.155Z,56.30
2022-07-25T16:10:44.822Z,55.70
2022-07-25T16:13:11.461Z,55.00
2022-07-25T16:15:38.511Z,54.60
2022-07-25T16:18:05.128Z,55.10
2022-07-25T16:20:32.284Z,54.40
2022-07-25T16:22:59.617Z,56.20
2022-07-25T16:25:27.480Z,57.40
2022-07-25T16:27:54.193Z,59.00
2022-07-25T16:30:21.222Z,59.80
2022-07-25T16:32:47.872Z,60.50
2022-07-25T16:35:14.553Z,61.50
2022-07-25T16:37:41.753Z,61.70
2022-07-25T16:40:08.900Z,62.60
2022-07-25T16:42:35.809Z,63.40
2022-07-25T16:45:02.547Z,64.40
2022-07-25T16:47:29.149Z,65.80
2022-07-25T16:49:55.863Z,66.60
2022-07-25T16:52:22.835Z,66.40
2022-07-25T16:54:49.772Z,66.60
2022-07-25T16:57:16.409Z,65.90
2022-07-25T16:59:43.042Z,66.40
2022-07-25T17:02:09.754Z,66.50
2022-07-25T17:04:37.458Z,66.80
2022-07-25T17:07:04.117Z,67.10
2022-07-25T17:09:30.764Z,67.60
2022-07-25T17:11:57.948Z,68.10
2022-07-25T17:14:29.999Z,68.50
2022-07-25T17:16:57.043Z,68.90
2022-07-25T17:19:23.711Z,69.70
2022-07-25T17:21:50.347Z,70.60
2022-07-25T17:24:16.987Z,71.30
2022-07-25T17:26:43.635Z,71.80
2022-07-25T17:29:10.652Z,72.70
2022-07-25T17:31:37.581Z,73.30
2022-07-25T17:34:04.311Z,73.70
2022-07-25T17:36:30.924Z,74.00
2022-07-25T17:38:57.624Z,74.50
2022-07-25T17:41:24.270Z,75.20
2022-07-25T17:43:50.907Z,75.70
2022-07-25T17:46:17.617Z,75.50
2022-07-25T17:48:44.480Z,76.20
2022-07-25T17:51:11.922Z,76.70
2022-07-25T17:53:38.573Z,77.10
2022-07-25T17:56:05.322Z,77.50
2022-07-25T17:58:32.150Z,78.20
2022-07-25T18:01:01.384Z,78.60
2022-07-25T18:03:28.902Z,78.80
2022-07-25T18:05:55.663Z,79.00
2022-07-25T18:08:22.539Z,78.10
2022-07-25T18:10:49.838Z,77.80
2022-07-25T18:13:21.918Z,78.00
2022-07-25T18:15:50.285Z,77.90
2022-07-25T18:18:20.382Z,77.80
2022-07-25T18:20:47.602Z,77.80
2022-07-25T18:23:14.407Z,77.70
2022-07-25T18:25:41.052Z,77.80
2022-07-25T18:28:07.662Z,77.80
2022-07-25T18:30:34.354Z,77.90
2022-07-25T18:33:00.949Z,77.80
2022-07-25T18:35:27.578Z,78.20
2022-07-25T18:37:54.321Z,78.90
2022-07-25T18:40:21.552Z,79.20
2022-07-25T18:42:48.191Z,79.80
2022-07-25T18:45:15.517Z,80.40
2022-07-25T18:47:42.202Z,80.80
2022-07-25T18:50:09.166Z,82.10
2022-07-25T18:52:36.276Z,82.10
2022-07-25T18:55:04.431Z,82.50
2022-07-25T18:57:31.150Z,82.90
2022-07-25T19:00:02.591Z,83.00
2022-07-25T19:02:29.942Z,83.20
2022-07-25T19:04:56.635Z,83.80
2022-07-25T19:07:23.434Z,84.10
2022-07-25T19:09:50.050Z,84.90
2022-07-25T19:12:16.665Z,85.60
2022-07-25T19:14:44.002Z,85.60
2022-07-25T19:17:10.690Z,85.50
2022-07-25T19:19:37.425Z,86.00
2022-07-25T19:22:04.072Z,86.30
2022-07-25T19:24:31.354Z,86.50
2022-07-25T19:26:58.814Z,86.70
2022-07-25T19:29:26.561Z,87.40
2022-07-25T19:31:53.267Z,88.20
2022-07-25T19:34:19.942Z,88.50
2022-07-25T19:36:46.557Z,88.70
2022-07-25T19:39:13.179Z,89.20
2022-07-25T19:41:44.714Z,89.50
2022-07-25T19:44:13.257Z,90.00
2022-07-25T19:46:40.052Z,90.20
2022-07-25T19:49:06.839Z,90.40
2022-07-25T19:51:33.595Z,90.80
2022-07-25T19:54:03.262Z,91.00
2022-07-25T19:56:30.872Z,91.20
2022-07-25T19:58:58.106Z,91.30
2022-07-25T20:01:24.803Z,91.40
2022-07-25T20:03:51.511Z,91.30
2022-07-25T20:06:20.501Z,91.30
2022-07-25T20:08:47.832Z,91.40
2022-07-25T20:11:14.979Z,91.60
2022-07-25T20:13:41.649Z,91.50
2022-07-25T20:16:08.247Z,91.50
2022-07-25T20:18:34.885Z,91.60
2022-07-25T20:21:01.491Z,91.90
2022-07-25T20:23:28.166Z,92.00
2022-07-25T20:25:54.877Z,92.20
2022-07-25T20:28:21.633Z,92.40
2022-07-25T20:30:49.527Z,92.80
2022-07-25T20:33:17.191Z,93.00
2022-07-25T20:35:43.811Z,93.40
2022-07-25T20:38:10.505Z,93.50
2022-07-25T20:40:43.841Z,94.10
2022-07-25T20:43:14.970Z,94.40
2022-07-25T20:45:41.634Z,94.70
2022-07-25T20:48:08.272Z,95.20
2022-07-25T20:50:37.054Z,95.80
2022-07-25T20:53:04.541Z,96.30
2022-07-25T20:55:31.238Z,96.80
2022-07-25T20:57:58.137Z,97.20
2022-07-25T21:00:27.340Z,97.60
2022-07-25T21:02:54.198Z,98.50
2022-07-25T21:05:21.213Z,98.70
2022-07-25T21:07:47.848Z,99.60
2022-07-25T21:10:14.624Z,99.40
2022-07-25T21:12:41.244Z,99.90
2022-07-25T21:15:08.330Z,99.90
2022-07-25T21:17:35.028Z,99.90
2022-07-25T21:20:01.658Z,99.90
2022-07-25T21:22:28.286Z,99.90
2022-07-25T21:24:54.966Z,99.90
2022-07-25T21:27:22.429Z,99.90
2022-07-25T21:29:49.044Z,99.90
2022-07-25T21:32:17.156Z,99.90
2022-07-25T21:34:45.509Z,99.90
2022-07-25T21:37:12.791Z,99.90
2022-07-25T21:39:39.456Z,99.90
2022-07-25T21:42:09.671Z,99.90
2022-07-25T21:44:39.785Z,99.90
2022-07-25T21:47:06.777Z,99.90
2022-07-25T21:49:52.269Z,99.90
2022-07-25T21:52:19.083Z,99.90
2022-07-25T21:54:56.738Z,99.90
2022-07-25T21:57:23.365Z,99.90
2022-07-25T21:59:50.082Z,99.90
2022-07-25T22:02:16.782Z,99.90
2022-07-25T22:04:43.406Z,99.90
2022-07-25T22:07:10.063Z,99.90
2022-07-25T22:09:36.719Z,99.90
2022-07-25T22:12:03.609Z,99.90
2022-07-25T22:14:30.221Z,99.90
2022-07-25T22:16:56.900Z,99.90
2022-07-25T22:19:23.567Z,99.90
2022-07-25T22:21:50.512Z,99.90
2022-07-25T22:24:17.141Z,99.90
2022-07-25T22:26:43.788Z,99.90
2022-07-25T22:29:11.161Z,99.90
2022-07-25T22:31:40.834Z,99.90
2022-07-25T22:34:08.230Z,99.90
2022-07-25T22:36:34.827Z,99.90
2022-07-25T22:39:01.462Z,99.90
2022-07-25T22:41:28.076Z,99.90
2022-07-25T22:43:59.043Z,99.90
2022-07-25T22:46:29.407Z,99.90
2022-07-25T22:48:56.550Z,99.90
2022-07-25T22:51:23.398Z,99.90
2022-07-25T22:53:50.145Z,99.90
2022-07-25T22:56:16.896Z,99.90
2022-07-25T22:58:43.527Z,99.90
2022-07-25T23:01:12.551Z,99.90
2022-07-25T23:03:39.216Z,99.90
2022-07-25T23:06:06.234Z,99.90
2022-07-25T23:08:32.850Z,99.90
2022-07-25T23:10:59.548Z,99.90
2022-07-25T23:13:26.171Z,99.90
2022-07-25T23:15:52.816Z,99.90
2022-07-25T23:18:19.632Z,99.90
2022-07-25T23:20:46.286Z,99.90
2022-07-25T23:23:13.075Z,99.90
2022-07-25T23:25:39.750Z,99.90
2022-07-25T23:28:06.393Z,99.90
2022-07-25T23:30:38.047Z,99.90
2022-07-25T23:33:08.390Z,99.90
2022-07-25T23:35:35.284Z,99.90
2022-07-25T23:38:02.141Z,99.90
2022-07-25T23:40:28.772Z,99.90
2022-07-25T23:42:55.453Z,99.90
2022-07-25T23:45:22.464Z,99.90
2022-07-25T23:47:54.729Z,99.90
2022-07-25T23:50:22.158Z,99.90
2022-07-25T23:52:48.757Z,99.90
2022-07-25T23:55:15.399Z,99.90
2022-07-25T23:57:42.086Z,99.90
